Time;durP1;ratioP1;P1;durP2;ratioP2;P2;SDS_P1;SDS_P2;PMS_P1;PMS_P2;Temp;Humidity;BMP_temperature;BMP_pressure;BME280_temperature;BME280_humidity;BME280_pressure;Samples;Min_cycle;Max_cycle;Signal;HPM_P1;HPM_P2
2023/01/02 00:02:00;;;;;;;8.05;3.80;;;;;;;9.60;100.00;100519.72;6170115;28;20354;-89
2023/01/02 00:05:01;;;;;;;7.78;3.40;;;;;;;9.60;100.00;100518.91;6187824;28;20046;-89
2023/01/02 00:08:06;;;;;;;9.82;3.30;;;;;;;9.64;100.00;100510.00;6186100;28;20050;-90
2023/01/02 00:11:08;;;;;;;9.63;3.60;;;;;;;9.69;100.00;100513.88;6187766;28;20417;-90
2023/01/02 00:14:10;;;;;;;8.63;3.33;;;;;;;9.77;100.00;100504.72;6184273;28;20034;-90
2023/01/02 00:17:11;;;;;;;9.13;3.70;;;;;;;9.76;100.00;100498.72;6168052;28;20038;-90
2023/01/02 00:20:15;;;;;;;7.90;3.47;;;;;;;9.75;100.00;100499.66;6181271;28;20050;-90
2023/01/02 00:23:18;;;;;;;9.10;3.42;;;;;;;9.79;100.00;100490.75;6151311;28;20043;-90
2023/01/02 00:26:20;;;;;;;11.50;3.60;;;;;;;9.78;100.00;100493.44;6184317;28;20926;-90
2023/01/02 00:29:21;;;;;;;5.70;3.33;;;;;;;9.82;100.00;100479.34;6166418;28;20054;-90
2023/01/02 00:32:23;;;;;;;11.20;3.70;;;;;;;9.82;100.00;100469.81;6185071;28;20704;-90
2023/01/02 00:35:25;;;;;;;8.38;3.45;;;;;;;9.80;100.00;100463.13;6183671;28;20076;-89
2023/01/02 00:38:27;;;;;;;8.52;3.20;;;;;;;9.77;100.00;100453.84;6185541;28;20579;-89
2023/01/02 00:41:28;;;;;;;9.07;2.97;;;;;;;9.77;100.00;100443.50;6192390;28;20046;-89
2023/01/02 00:44:30;;;;;;;10.40;3.60;;;;;;;9.76;100.00;100431.50;6183862;28;20189;-89
2023/01/02 00:47:32;;;;;;;9.50;4.03;;;;;;;9.78;100.00;100421.06;6169006;28;20043;-90
2023/01/02 00:50:34;;;;;;;10.02;3.67;;;;;;;9.80;100.00;100429.53;6167418;28;20042;-90
2023/01/02 00:53:36;;;;;;;9.63;3.30;;;;;;;9.80;100.00;100421.75;6180516;28;20504;-90
2023/01/02 00:56:38;;;;;;;6.43;3.50;;;;;;;9.82;100.00;100402.59;6179383;28;20686;-89
2023/01/02 00:59:40;;;;;;;9.98;3.58;;;;;;;9.83;100.00;100413.75;6186647;28;20076;-90
2023/01/02 01:02:41;;;;;;;8.60;3.17;;;;;;;9.83;100.00;100411.19;6183061;28;20038;-90
2023/01/02 01:05:44;;;;;;;4.95;3.22;;;;;;;9.79;100.00;100408.03;6184593;28;20373;-89
2023/01/02 01:08:46;;;;;;;11.02;3.28;;;;;;;9.76;100.00;100394.50;6168290;28;20125;-89
2023/01/02 01:11:48;;;;;;;7.50;3.10;;;;;;;9.71;100.00;100389.69;6186647;28;20042;-89
2023/01/02 01:14:49;;;;;;;9.85;3.22;;;;;;;9.71;100.00;100392.25;6184838;28;20035;-89
2023/01/02 01:17:51;;;;;;;8.95;3.08;;;;;;;9.64;100.00;100401.47;6169025;28;20042;-89
2023/01/02 01:20:54;;;;;;;8.43;3.53;;;;;;;9.58;100.00;100397.56;6175874;28;20134;-89
2023/01/02 01:23:56;;;;;;;7.40;3.75;;;;;;;9.58;100.00;100391.56;6171906;28;20045;-89
2023/01/02 01:26:58;;;;;;;8.90;3.30;;;;;;;9.56;100.00;100391.69;6171495;28;20073;-89
2023/01/02 01:30:00;;;;;;;10.10;3.03;;;;;;;9.56;100.00;100388.28;6169243;28;20042;-89
2023/01/02 01:33:02;;;;;;;9.80;3.15;;;;;;;9.56;100.00;100396.84;6184970;28;20412;-89
2023/01/02 01:36:09;;;;;;;7.90;3.40;;;;;;;9.58;100.00;100402.72;6162782;28;20378;-89
2023/01/02 01:39:11;;;;;;;9.52;3.08;;;;;;;9.60;100.00;100393.09;6178792;28;20045;-89
2023/01/02 01:42:14;;;;;;;7.53;3.17;;;;;;;9.65;100.00;100397.94;6162376;28;20042;-89
2023/01/02 01:45:17;;;;;;;10.27;3.25;;;;;;;9.66;100.00;100379.72;6159494;28;20054;-88
2023/01/02 01:48:19;;;;;;;10.02;3.20;;;;;;;9.69;100.00;100389.00;6183801;28;20047;-88
2023/01/02 01:51:23;;;;;;;6.43;3.17;;;;;;;9.67;100.00;100375.38;6185610;28;20034;-89
2023/01/02 01:54:51;;;;;;;8.77;3.70;;;;;;;9.68;100.00;100367.47;6183010;28;20066;-89
2023/01/02 01:58:22;;;;;;;8.93;3.55;;;;;;;9.67;100.00;100368.44;6148487;28;20047;-89
2023/01/02 02:01:24;;;;;;;6.97;3.13;;;;;;;9.67;100.00;100365.84;6164722;28;20054;-88
2023/01/02 02:04:26;;;;;;;6.50;3.30;;;;;;;9.70;100.00;100365.59;6186400;28;20065;-88
2023/01/02 02:07:29;;;;;;;8.68;3.72;;;;;;;9.68;100.00;100362.31;6172101;28;20051;-89
2023/01/02 02:10:31;;;;;;;8.25;3.22;;;;;;;9.59;100.00;100360.47;6187243;28;20149;-89
2023/01/02 02:13:33;;;;;;;10.18;3.38;;;;;;;9.53;100.00;100354.94;6168282;28;20504;-89
2023/01/02 02:17:02;;;;;;;8.32;3.60;;;;;;;9.57;100.00;100349.41;6189751;28;20034;-89
2023/01/02 02:20:28;;;;;;;4.97;2.83;;;;;;;9.61;100.00;100343.06;6185812;28;20102;-89
2023/01/02 02:23:55;;;;;;;6.10;3.08;;;;;;;9.74;100.00;100340.34;6184322;28;20057;-89
2023/01/02 02:27:25;;;;;;;5.68;3.33;;;;;;;9.91;100.00;100328.66;6072201;29;20139;-89
2023/01/02 02:30:37;;;;;;;6.97;3.28;;;;;;;10.04;100.00;100300.09;6089146;29;20064;-89
2023/01/02 02:34:03;;;;;;;9.65;3.45;;;;;;;10.11;100.00;100285.69;6084078;29;20389;-89
2023/01/02 02:37:40;;;;;;;6.47;2.47;;;;;;;10.17;100.00;100274.88;6054618;29;20052;-89
2023/01/02 02:41:08;;;;;;;7.70;3.13;;;;;;;10.21;100.00;100260.75;6064238;29;20052;-89
2023/01/02 02:44:42;;;;;;;11.13;3.17;;;;;;;10.25;100.00;100250.97;6054194;29;20052;-89
2023/01/02 02:47:54;;;;;;;6.18;3.03;;;;;;;10.20;100.00;100251.31;6062167;29;20052;-89
2023/01/02 02:51:09;;;;;;;5.72;2.92;;;;;;;10.17;100.00;100238.66;6058016;29;20044;-89
2023/01/02 02:54:27;;;;;;;6.97;3.20;;;;;;;10.12;100.00;100248.56;6043874;29;20824;-88
2023/01/02 02:57:32;;;;;;;6.43;2.67;;;;;;;10.09;100.00;100243.63;6052329;29;20072;-89
2023/01/02 03:00:33;;;;;;;7.05;3.03;;;;;;;10.08;100.00;100244.56;6049780;29;20100;-89
2023/01/02 03:03:35;;;;;;;6.30;2.97;;;;;;;10.12;100.00;100238.22;6087774;29;20060;-89
2023/01/02 03:06:58;;;;;;;6.35;2.97;;;;;;;10.18;100.00;100245.44;6097940;29;20063;-89
2023/01/02 03:10:30;;;;;;;7.00;2.60;;;;;;;10.27;100.00;100236.13;6107949;29;20586;-89
2023/01/02 03:13:38;;;;;;;5.68;2.60;;;;;;;10.42;100.00;100237.47;6090205;29;20043;-89
2023/01/02 03:16:47;;;;;;;5.43;2.88;;;;;;;10.47;100.00;100237.91;6138958;28;20058;-89
2023/01/02 03:19:52;;;;;;;7.00;2.72;;;;;;;10.51;100.00;100241.09;6170298;28;20041;-89
2023/01/02 03:23:01;;;;;;;7.32;2.67;;;;;;;10.50;100.00;100236.84;6168862;28;20038;-88
2023/01/02 03:26:04;;;;;;;6.90;3.00;;;;;;;10.54;100.00;100230.47;6165050;28;20513;-89
2023/01/02 03:29:14;;;;;;;7.18;2.80;;;;;;;10.55;100.00;100232.91;6170088;28;20054;-88
2023/01/02 03:32:20;;;;;;;;;;;;;;;10.59;100.00;100237.84;6170740;28;20133;-89
2023/01/02 03:35:36;;;;;;;8.43;2.83;;;;;;;10.55;100.00;100240.69;6185748;28;19933;-89
2023/01/02 03:38:53;;;;;;;8.77;2.85;;;;;;;10.49;100.00;100246.38;6187232;28;20042;-88
2023/01/02 03:42:11;;;;;;;4.85;2.70;;;;;;;10.47;100.00;100245.69;6184672;28;20035;-87
2023/01/02 03:45:27;;;;;;;7.68;3.00;;;;;;;10.43;100.00;100248.66;6177994;28;20092;-87
2023/01/02 03:48:44;;;;;;;9.88;2.80;;;;;;;10.38;100.00;100259.38;6186599;28;20046;-87
2023/01/02 03:51:46;;;;;;;5.28;2.65;;;;;;;10.34;100.00;100261.41;6180392;28;20057;-87
2023/01/02 03:54:48;;;;;;;9.32;3.40;;;;;;;10.29;100.00;100273.91;6185689;28;20050;-87
2023/01/02 03:58:00;;;;;;;8.60;3.15;;;;;;;10.25;100.00;100272.47;6186851;28;20093;-87
2023/01/02 04:01:15;;;;;;;7.32;2.92;;;;;;;10.19;100.00;100277.34;6182848;28;20039;-87
2023/01/02 04:04:33;;;;;;;8.23;2.83;;;;;;;10.06;100.00;100283.50;6182267;28;20547;-87
2023/01/02 04:07:58;;;;;;;7.47;3.40;;;;;;;9.96;100.00;100287.75;6189744;28;20042;-88
2023/01/02 04:11:02;;;;;;;6.18;2.88;;;;;;;9.85;100.00;100305.91;6172408;28;20115;-88
2023/01/02 04:14:15;;;;;;;8.48;2.85;;;;;;;9.82;100.00;100306.97;6189336;28;20046;-88
2023/01/02 04:17:22;;;;;;;5.35;3.15;;;;;;;9.80;100.00;100297.69;6189188;28;20039;-89
2023/01/02 04:20:32;;;;;;;9.45;3.30;;;;;;;9.82;100.00;100311.31;6184478;28;20574;-89
2023/01/02 04:23:39;;;;;;;8.35;3.25;;;;;;;9.78;100.00;100304.72;6172659;28;20540;-88
2023/01/02 04:26:49;;;;;;;8.55;2.88;;;;;;;9.72;100.00;100300.88;6185774;28;20056;-89
2023/01/02 04:29:51;;;;;;;8.02;3.72;;;;;;;9.67;100.00;100306.41;6169559;28;20424;-88
2023/01/02 04:32:56;;;;;;;8.25;3.10;;;;;;;9.60;100.00;100318.16;6188817;28;20039;-88
2023/01/02 04:36:06;;;;;;;9.40;2.67;;;;;;;9.61;100.00;100324.97;6170786;28;20193;-88
2023/01/02 04:39:09;;;;;;;8.45;3.03;;;;;;;9.64;100.00;100339.44;6188895;28;20042;-89
2023/01/02 04:42:10;;;;;;;7.50;3.22;;;;;;;9.73;100.00;100343.03;6187997;28;20034;-88
2023/01/02 04:45:13;;;;;;;7.15;2.65;;;;;;;9.77;100.00;100342.69;6171432;28;20053;-89
2023/01/02 04:48:16;;;;;;;10.60;2.90;;;;;;;9.81;100.00;100333.75;6187670;28;20051;-89
2023/01/02 04:51:19;;;;;;;8.95;3.20;;;;;;;9.85;100.00;100322.22;6188057;28;20070;-88
2023/01/02 04:54:21;;;;;;;6.70;2.80;;;;;;;9.93;100.00;100300.94;6171163;28;20260;-88
2023/01/02 04:57:23;;;;;;;6.63;2.63;;;;;;;10.00;100.00;100285.75;6169127;28;20137;-89
2023/01/02 05:00:25;;;;;;;5.85;2.90;;;;;;;10.14;100.00;100286.28;6186870;28;20035;-88
2023/01/02 05:03:26;;;;;;;7.28;2.92;;;;;;;10.20;100.00;100284.94;6186225;28;20046;-88
2023/01/02 05:06:28;;;;;;;9.27;3.28;;;;;;;10.15;100.00;100284.50;6169163;28;20038;-88
2023/01/02 05:09:30;;;;;;;8.95;2.60;;;;;;;10.13;100.00;100294.97;6188191;28;20054;-88
2023/01/02 05:12:34;;;;;;;5.40;2.95;;;;;;;10.17;100.00;100299.91;6181903;28;20042;-89
2023/01/02 05:15:35;;;;;;;9.10;3.20;;;;;;;10.10;100.00;100300.41;6185793;28;20041;-90
2023/01/02 05:18:37;;;;;;;6.85;2.88;;;;;;;10.13;100.00;100315.66;6181607;28;20173;-90
2023/01/02 05:24:59;;;;;;;9.48;3.20;;;;;;;10.07;100.00;100326.50;6179397;28;20045;-89
2023/01/02 05:28:03;;;;;;;7.07;3.10;;;;;;;9.97;100.00;100314.44;6182332;28;20035;-90
2023/01/02 05:31:04;;;;;;;6.97;3.25;;;;;;;9.91;100.00;100329.50;6165660;28;20437;-89
2023/01/02 05:34:11;;;;;;;5.43;3.15;;;;;;;9.92;100.00;100343.25;6176921;28;20038;-89
2023/01/02 05:37:13;;;;;;;7.07;2.80;;;;;;;9.93;100.00;100350.06;6187444;28;20050;-90
2023/01/02 05:40:15;;;;;;;9.73;3.30;;;;;;;9.90;100.00;100350.31;6169804;28;20082;-90
2023/01/02 05:43:17;;;;;;;10.73;3.33;;;;;;;9.92;100.00;100343.25;6180180;28;20039;-90
2023/01/02 05:46:21;;;;;;;8.23;2.90;;;;;;;9.90;100.00;100348.53;6179998;28;20046;-89
2023/01/02 05:49:22;;;;;;;7.10;3.20;;;;;;;9.87;100.00;100356.53;6178566;28;20480;-89
2023/01/02 05:52:24;;;;;;;10.50;3.33;;;;;;;9.88;100.00;100350.41;6177683;28;20078;-89
2023/01/02 05:55:26;;;;;;;8.00;2.95;;;;;;;9.88;100.00;100355.56;6172115;28;20043;-89
2023/01/02 05:58:32;;;;;;;7.05;2.90;;;;;;;9.86;100.00;100354.06;6173684;28;20178;-88
2023/01/02 06:01:37;;;;;;;7.75;3.15;;;;;;;9.88;100.00;100347.00;6173732;28;20807;-88
2023/01/02 06:04:39;;;;;;;6.32;3.10;;;;;;;9.88;100.00;100337.47;6171192;28;20045;-89
2023/01/02 06:07:40;;;;;;;8.73;3.20;;;;;;;9.83;100.00;100339.59;6173330;28;20050;-89
2023/01/02 06:10:53;;;;;;;8.05;3.22;;;;;;;9.77;100.00;100342.69;6175288;28;20137;-89
2023/01/02 06:13:56;;;;;;;10.98;3.97;;;;;;;9.64;100.00;100352.34;6174839;28;20464;-89
2023/01/02 06:16:58;;;;;;;11.70;3.33;;;;;;;9.54;100.00;100357.41;6173655;28;20057;-89
2023/01/02 06:19:59;;;;;;;7.38;3.08;;;;;;;9.45;100.00;100353.75;6185095;28;20039;-89
2023/01/02 06:23:01;;;;;;;10.07;3.08;;;;;;;9.45;100.00;100351.19;6170361;28;20034;-89
2023/01/02 06:26:05;;;;;;;8.25;2.85;;;;;;;9.44;100.00;100349.56;6170059;28;20615;-90
2023/01/02 06:29:08;;;;;;;7.85;2.80;;;;;;;9.38;100.00;100350.00;6187014;28;20046;-90
2023/01/02 06:32:10;;;;;;;7.68;2.83;;;;;;;9.39;100.00;100349.09;6177210;28;20054;-89
2023/01/02 06:35:12;;;;;;;10.50;2.80;;;;;;;9.48;100.00;100357.88;6171978;28;20046;-90
2023/01/02 06:38:13;;;;;;;12.25;2.92;;;;;;;9.52;100.00;100336.03;6185217;28;20050;-89
2023/01/02 06:41:16;;;;;;;6.47;2.83;;;;;;;9.60;100.00;100323.34;6167629;28;20042;-89
2023/01/02 06:44:17;;;;;;;6.70;2.75;;;;;;;9.62;100.00;100320.63;6173644;28;20128;-89
2023/01/02 06:47:19;;;;;;;5.40;2.55;;;;;;;9.68;100.00;100320.97;6167286;28;20074;-90
2023/01/02 06:50:21;;;;;;;11.13;2.75;;;;;;;9.80;100.00;100302.84;6176387;28;20464;-89
2023/01/02 06:53:29;;;;;;;6.07;2.53;;;;;;;9.96;100.00;100292.09;6189529;28;20457;-90
2023/01/02 06:56:30;;;;;;;5.65;2.53;;;;;;;10.03;100.00;100299.25;6173016;28;20038;-89
2023/01/02 06:59:32;;;;;;;4.55;2.20;;;;;;;10.17;100.00;100297.31;6190469;28;20480;-89
2023/01/02 07:02:34;;;;;;;5.25;2.50;;;;;;;10.28;100.00;100294.72;6173215;28;20046;-89
2023/01/02 07:05:36;;;;;;;6.20;2.80;;;;;;;10.32;100.00;100280.59;6184603;28;20421;-89
2023/01/02 07:08:38;;;;;;;6.35;2.53;;;;;;;10.39;100.00;100293.84;6179042;28;20054;-89
2023/01/02 07:11:39;;;;;;;8.15;2.90;;;;;;;10.43;100.00;100283.09;6156227;28;20079;-89
2023/01/02 07:14:41;;;;;;;7.80;3.05;;;;;;;10.52;100.00;100279.75;6172136;28;20042;-89
2023/01/02 07:17:43;;;;;;;6.40;2.30;;;;;;;10.55;100.00;100271.72;6165927;28;20046;-90
2023/01/02 07:20:52;;;;;;;5.88;2.80;;;;;;;10.57;100.00;100261.25;6169387;28;20046;-89
2023/01/02 07:23:54;;;;;;;9.45;2.83;;;;;;;10.61;100.00;100261.81;6138406;28;20046;-89
2023/01/02 07:26:56;;;;;;;7.53;2.38;;;;;;;10.54;100.00;100274.47;6186359;28;20509;-89
2023/01/02 07:29:59;;;;;;;5.65;2.42;;;;;;;10.54;100.00;100277.06;6186343;28;20053;-89
2023/01/02 07:33:01;;;;;;;5.20;2.30;;;;;;;10.49;100.00;100276.63;6181880;28;20496;-89
2023/01/02 07:36:05;;;;;;;7.30;2.65;;;;;;;10.49;100.00;100286.97;6172630;28;20500;-89
2023/01/02 07:39:07;;;;;;;6.75;2.83;;;;;;;10.51;100.00;100277.31;6172692;28;20118;-90
2023/01/02 07:42:09;;;;;;;5.63;2.40;;;;;;;10.41;100.00;100285.00;6184116;28;20049;-89
2023/01/02 07:45:10;;;;;;;7.20;2.00;;;;;;;10.37;100.00;100299.13;6177432;28;20042;-89
2023/01/02 07:48:12;;;;;;;4.75;2.53;;;;;;;10.44;100.00;100294.28;6187564;28;20050;-89
2023/01/02 07:51:14;;;;;;;7.07;3.13;;;;;;;10.42;100.00;100291.81;6170444;28;20487;-90
2023/01/02 07:54:20;;;;;;;6.75;2.40;;;;;;;10.33;100.00;100288.22;6186969;28;20030;-90
2023/01/02 07:57:22;;;;;;;6.40;2.50;;;;;;;10.23;100.00;100287.28;6188259;28;20162;-89
2023/01/02 08:00:25;;;;;;;6.70;2.40;;;;;;;10.15;100.00;100294.84;6156245;28;20038;-89
2023/01/02 08:03:27;;;;;;;5.80;2.35;;;;;;;10.18;100.00;100304.13;6186485;28;20049;-89
2023/01/02 08:06:29;;;;;;;6.50;2.55;;;;;;;10.20;100.00;100304.84;6170067;28;20073;-87
2023/01/02 08:09:31;;;;;;;5.00;2.47;;;;;;;10.25;100.00;100305.28;6178205;28;20042;-87
2023/01/02 08:12:33;;;;;;;6.30;2.30;;;;;;;10.24;100.00;100309.63;6172219;28;20493;-87
2023/01/02 08:15:34;;;;;;;5.30;2.50;;;;;;;10.28;100.00;100315.41;6187096;28;20152;-87
2023/01/02 08:18:37;;;;;;;4.57;2.58;;;;;;;10.29;100.00;100319.66;6184771;28;20046;-87
2023/01/02 08:21:39;;;;;;;3.78;2.30;;;;;;;10.23;100.00;100317.50;6171224;28;20050;-88
2023/01/02 08:24:41;;;;;;;7.75;2.63;;;;;;;10.29;100.00;100330.00;6156335;28;20046;-87
2023/01/02 08:27:42;;;;;;;4.15;2.20;;;;;;;10.35;100.00;100322.53;6186616;28;20053;-87
2023/01/02 08:30:44;;;;;;;7.32;2.58;;;;;;;10.41;100.00;100333.34;6183994;28;20065;-87
2023/01/02 08:33:46;;;;;;;4.93;2.20;;;;;;;10.42;100.00;100332.41;6168658;28;20125;-87
2023/01/02 08:36:48;;;;;;;5.95;2.40;;;;;;;10.44;100.00;100322.75;6171273;28;20128;-87
2023/01/02 08:39:50;;;;;;;9.18;2.30;;;;;;;10.48;100.00;100331.88;6182411;28;20049;-87
2023/01/02 08:42:52;;;;;;;4.72;2.17;;;;;;;10.48;100.00;100321.53;6188100;28;20654;-87
2023/01/02 08:45:54;;;;;;;4.43;2.28;;;;;;;10.50;100.00;100323.06;6167240;28;20505;-87
2023/01/02 08:48:57;;;;;;;6.25;2.40;;;;;;;10.60;100.00;100327.47;6153718;28;20046;-87
2023/01/02 08:51:59;;;;;;;6.38;2.10;;;;;;;10.64;100.00;100328.88;6187834;28;20042;-87
2023/01/02 08:55:02;;;;;;;5.28;1.85;;;;;;;10.72;100.00;100322.09;6187067;28;20045;-87
2023/01/02 08:58:06;;;;;;;5.13;2.17;;;;;;;10.84;100.00;100327.22;6183753;28;20078;-87
2023/01/02 09:01:07;;;;;;;5.35;2.00;;;;;;;10.94;100.00;100322.91;6186279;28;20053;-87
2023/01/02 09:04:09;;;;;;;7.43;2.13;;;;;;;11.07;100.00;100326.13;6182613;28;20416;-88
2023/01/02 09:07:13;;;;;;;7.20;2.10;;;;;;;11.11;100.00;100329.28;6181407;28;20054;-87
2023/01/02 09:10:15;;;;;;;8.65;2.25;;;;;;;11.16;100.00;100332.31;6184729;28;20057;-87
2023/01/02 09:13:17;;;;;;;5.68;2.13;;;;;;;11.33;100.00;100336.03;6175737;28;20049;-87
2023/01/02 09:16:19;;;;;;;2.92;1.80;;;;;;;11.63;100.00;100314.44;6186701;28;20137;-87
2023/01/02 09:19:21;;;;;;;5.32;2.10;;;;;;;11.75;100.00;100321.16;6186209;28;20042;-88
2023/01/02 09:22:23;;;;;;;5.43;2.00;;;;;;;11.73;100.00;100312.69;6175496;28;20504;-87
2023/01/02 09:25:25;;;;;;;6.15;1.83;;;;;;;11.74;100.00;100324.69;6180672;28;20499;-88
2023/01/02 09:28:27;;;;;;;6.18;1.80;;;;;;;11.69;100.00;100326.88;6162916;28;20076;-88
2023/01/02 09:31:29;;;;;;;4.35;1.98;;;;;;;11.90;100.00;100329.41;6179738;28;20059;-87
2023/01/02 09:34:31;;;;;;;3.35;1.70;;;;;;;11.91;100.00;100341.41;6187930;28;20074;-87
2023/01/02 09:37:33;;;;;;;4.85;1.80;;;;;;;11.89;100.00;100338.13;6168881;28;20046;-88
2023/01/02 09:40:37;;;;;;;5.45;1.90;;;;;;;12.04;100.00;100336.78;6167491;28;20049;-87
2023/01/02 09:43:45;;;;;;;4.20;1.90;;;;;;;12.19;100.00;100329.41;6173780;28;20068;-87
2023/01/02 09:46:53;;;;;;;6.70;1.70;;;;;;;12.22;100.00;100326.56;6188459;28;20088;-88
2023/01/02 09:49:59;;;;;;;5.53;2.10;;;;;;;12.25;100.00;100326.28;6187852;28;20547;-88
2023/01/02 09:53:03;;;;;;;4.88;1.80;;;;;;;12.19;100.00;100329.41;6182287;28;20042;-88
2023/01/02 09:56:26;;;;;;;8.38;1.92;;;;;;;12.36;100.00;100332.28;6157214;28;20502;-88
2023/01/02 09:59:54;;;;;;;5.22;2.47;;;;;;;12.47;100.00;100319.16;6177337;28;20086;-88
2023/01/02 10:03:25;;;;;;;4.97;1.80;;;;;;;12.53;100.00;100354.97;6180070;28;20035;-88
2023/01/02 10:07:03;;;;;;;4.75;1.70;;;;;;;12.77;100.00;100357.13;6173632;28;20116;-88
2023/01/02 10:10:20;;;;;;;5.47;1.80;;;;;;;12.77;100.00;100353.69;6178787;28;20058;-87
2023/01/02 10:13:32;;;;;;;4.35;1.85;;;;;;;12.71;100.00;100360.25;6185397;28;20053;-88
2023/01/02 10:16:57;;;;;;;6.18;1.90;;;;;;;12.59;100.00;100364.78;6183086;28;20046;-87
2023/01/02 10:20:34;;;;;;;4.72;1.73;;;;;;;12.48;100.00;100386.53;6185120;28;20058;-88
2023/01/02 10:23:51;;;;;;;8.48;2.35;;;;;;;12.38;100.00;100397.88;6178236;28;20031;-87
2023/01/02 10:26:53;;;;;;;4.75;2.05;;;;;;;12.12;100.00;100415.72;6184018;28;20114;-87
2023/01/02 10:30:19;;;;;;;8.55;2.35;;;;;;;11.93;100.00;100400.94;6183914;28;20096;-86
2023/01/02 10:33:44;;;;;;;6.20;2.25;;;;;;;11.79;100.00;100400.31;6063558;29;20056;-87
2023/01/02 10:36:48;;;;;;;5.03;1.98;;;;;;;11.77;100.00;100388.44;6069813;29;20049;-87
2023/01/02 10:39:50;;;;;;;5.13;1.77;;;;;;;11.81;100.00;100388.03;6070151;29;20048;-86
2023/01/02 10:42:56;;;;;;;3.78;1.90;;;;;;;11.88;100.00;100384.97;6060617;29;20820;-87
2023/01/02 10:46:02;;;;;;;4.28;1.70;;;;;;;11.77;100.00;100378.06;6069146;29;20045;-86
2023/01/02 10:49:06;;;;;;;6.80;2.20;;;;;;;11.80;100.00;100375.19;6059304;29;20514;-86
2023/01/02 10:52:34;;;;;;;2.85;1.85;;;;;;;11.90;100.00;100372.66;6069624;29;20080;-86
2023/01/02 10:55:43;;;;;;;4.35;1.80;;;;;;;12.05;100.00;100377.34;6069439;29;20548;-86
2023/01/02 10:58:49;;;;;;;4.70;1.95;;;;;;;12.14;100.00;100380.09;6064825;29;20051;-87
2023/01/02 11:01:57;;;;;;;7.45;2.15;;;;;;;12.44;100.00;100376.53;6065078;29;20052;-87
2023/01/02 11:05:01;;;;;;;6.63;2.00;;;;;;;12.73;100.00;100373.94;6066489;29;20046;-86
2023/01/02 11:08:11;;;;;;;4.90;1.80;;;;;;;12.93;100.00;100378.13;6065959;29;20609;-87
2023/01/02 11:11:15;;;;;;;2.22;1.45;;;;;;;12.93;100.00;100380.72;6171173;28;20097;-87
2023/01/02 11:14:40;;;;;;;5.35;1.80;;;;;;;12.97;100.00;100386.47;6184514;28;20061;-87
2023/01/02 11:17:43;;;;;;;4.72;1.70;;;;;;;12.90;100.00;100390.59;6189106;28;20037;-86
2023/01/02 11:20:52;;;;;;;3.05;1.80;;;;;;;12.90;100.00;100398.38;6182901;28;20054;-86
2023/01/02 11:24:18;;;;;;;4.47;1.85;;;;;;;12.71;100.00;100407.00;6191238;28;20609;-87
2023/01/02 11:27:20;;;;;;;4.50;1.80;;;;;;;12.49;100.00;100419.31;6175708;28;20061;-87
2023/01/02 11:30:41;;;;;;;4.60;1.88;;;;;;;12.39;100.00;100433.25;6182617;28;20046;-86
2023/01/02 11:33:45;;;;;;;3.92;1.55;;;;;;;12.32;100.00;100432.13;6184991;28;20042;-86
2023/01/02 11:37:13;;;;;;;2.60;1.30;;;;;;;12.39;100.00;100433.25;6188579;28;20069;-86
2023/01/02 11:40:26;;;;;;;4.53;1.52;;;;;;;12.44;100.00;100437.06;6171953;28;20057;-87
2023/01/02 11:43:50;;;;;;;2.30;1.30;;;;;;;12.49;100.00;100441.84;6190645;28;20118;-87
2023/01/02 11:46:54;;;;;;;2.38;1.55;;;;;;;12.42;100.00;100440.75;6188768;28;20412;-87
2023/01/02 11:49:57;;;;;;;5.07;1.27;;;;;;;12.37;100.00;100440.34;6170866;28;20038;-86
2023/01/02 11:53:11;;;;;;;1.67;0.95;;;;;;;12.25;100.00;100457.81;6188975;28;20508;-87
2023/01/02 11:56:16;;;;;;;0.88;0.57;;;;;;;12.07;100.00;100455.03;6181293;28;20557;-87
2023/01/02 11:59:24;;;;;;;0.73;0.70;;;;;;;11.93;100.00;100477.00;6188537;28;20428;-86
2023/01/02 12:02:25;;;;;;;0.60;0.57;;;;;;;11.90;100.00;100491.97;6190088;28;20042;-87
2023/01/02 12:06:04;;;;;;;2.58;0.70;;;;;;;11.89;100.00;100485.16;6187843;28;20046;-87
2023/01/02 12:09:38;;;;;;;2.15;1.00;;;;;;;11.82;100.00;100496.00;6187756;28;20508;-87
2023/01/02 12:12:57;;;;;;;1.42;0.88;;;;;;;11.80;100.00;100499.69;6180404;28;20082;-86
2023/01/02 12:16:30;;;;;;;1.27;1.00;;;;;;;11.59;100.00;100515.28;6189972;28;20389;-86
2023/01/02 12:19:56;;;;;;;1.65;0.90;;;;;;;11.27;100.00;100525.72;6183732;28;20470;-85
2023/01/02 12:23:26;;;;;;;2.85;1.20;;;;;;;11.24;100.00;100525.97;6174486;28;20043;-86
2023/01/02 12:26:55;;;;;;;0.98;0.77;;;;;;;11.19;100.00;100531.53;6171855;28;20102;-86
2023/01/02 12:30:10;;;;;;;2.28;0.80;;;;;;;11.16;100.00;100524.00;6188998;28;20054;-85
2023/01/02 12:33:37;;;;;;;2.35;0.93;;;;;;;11.11;100.00;100536.53;6182602;28;20057;-86
2023/01/02 12:36:52;;;;;;;1.00;0.90;;;;;;;11.16;100.00;100536.97;6182773;28;20050;-86
2023/01/02 12:40:15;;;;;;;1.00;0.90;;;;;;;11.23;100.00;100553.66;6189218;28;20042;-86
2023/01/02 12:43:54;;;;;;;1.73;0.80;;;;;;;11.25;100.00;100553.53;6182534;28;20421;-85
2023/01/02 12:47:21;;;;;;;0.77;0.70;;;;;;;11.29;100.00;100560.91;6179503;28;20081;-86
2023/01/02 12:51:02;;;;;;;1.00;0.88;;;;;;;11.41;100.00;100557.34;6185447;28;20523;-86
2023/01/02 12:54:40;;;;;;;1.38;0.73;;;;;;;11.47;100.00;100555.19;6111867;29;20091;-86
2023/01/02 12:58:05;;;;;;;1.50;0.60;;;;;;;11.44;100.00;100569.22;6104185;29;20056;-86
2023/01/02 13:01:20;;;;;;;0.60;0.60;;;;;;;11.37;100.00;100579.25;6106027;29;20070;-85
2023/01/02 13:04:44;;;;;;;0.50;0.50;;;;;;;11.15;100.00;100587.13;6106967;29;20421;-86
2023/01/02 13:07:54;;;;;;;0.70;0.60;;;;;;;11.13;100.00;100594.19;6099616;29;20046;-85
2023/01/02 13:11:01;;;;;;;0.70;0.70;;;;;;;11.07;100.00;100590.31;6114689;29;20054;-85
2023/01/02 13:14:05;;;;;;;1.23;0.77;;;;;;;11.05;100.00;100592.22;6109673;29;20505;-85
2023/01/02 13:17:39;;;;;;;0.88;0.88;;;;;;;10.95;100.00;100592.13;6109505;29;20059;-85
2023/01/02 13:21:03;;;;;;;0.73;0.57;;;;;;;10.94;100.00;100600.84;6086090;29;20056;-85
2023/01/02 13:24:10;;;;;;;0.68;0.68;;;;;;;10.97;100.00;100607.56;6020581;29;20073;-85
2023/01/02 13:27:12;;;;;;;0.70;0.70;;;;;;;10.91;100.00;100608.88;6026036;29;20220;-86
2023/01/02 13:30:32;;;;;;;1.13;0.80;;;;;;;10.77;100.00;100614.31;6032394;29;20069;-86
2023/01/02 13:33:43;;;;;;;0.93;0.70;;;;;;;10.67;100.00;100624.56;6041443;29;20179;-86
2023/01/02 13:36:46;;;;;;;0.70;0.70;;;;;;;10.56;100.00;100620.22;6041707;29;20502;-86
2023/01/02 13:40:02;;;;;;;2.03;0.90;;;;;;;10.63;100.00;100622.31;6039367;29;20490;-86
2023/01/02 13:43:07;;;;;;;0.82;0.75;;;;;;;10.58;100.00;100620.06;6041552;29;20049;-86
2023/01/02 13:46:10;;;;;;;1.15;0.88;;;;;;;10.55;100.00;100625.50;6023610;29;20045;-86
2023/01/02 13:49:33;;;;;;;0.88;0.80;;;;;;;10.49;100.00;100642.34;6109399;29;20548;-85
2023/01/02 13:52:35;;;;;;;1.08;0.98;;;;;;;10.39;100.00;100649.16;6106323;29;20055;-85
2023/01/02 13:56:00;;;;;;;1.17;1.08;;;;;;;10.33;100.00;100641.84;6132670;28;20047;-85
2023/01/02 13:59:20;;;;;;;1.45;0.80;;;;;;;10.21;100.00;100656.53;6180415;28;20038;-86
2023/01/02 14:03:27;;;;;;;1.20;1.10;;;;;;;10.11;100.00;100664.16;6186840;28;20069;-85
2023/01/02 14:06:37;;;;;;;1.35;1.25;;;;;;;9.83;100.00;100693.78;6191128;28;20429;-86
2023/01/02 14:10:01;;;;;;;1.92;1.10;;;;;;;9.70;100.00;100696.44;6187766;28;20630;-86
2023/01/02 14:13:08;;;;;;;3.10;1.75;;;;;;;9.55;100.00;100715.66;6186801;28;20046;-85
2023/01/02 14:16:32;;;;;;;1.60;1.50;;;;;;;9.48;100.00;100737.69;6190261;28;20065;-85
2023/01/02 14:19:37;;;;;;;1.55;1.42;;;;;;;9.33;100.00;100749.13;6187723;28;20049;-85
2023/01/02 14:22:47;;;;;;;2.17;1.65;;;;;;;9.32;100.00;100768.13;6179370;28;20553;-85
2023/01/02 14:25:49;;;;;;;1.87;1.70;;;;;;;9.32;100.00;100781.06;6189476;28;20034;-85
2023/01/02 14:28:51;;;;;;;2.92;1.88;;;;;;;9.30;100.00;100790.66;6184644;28;20045;-86
2023/01/02 14:32:00;;;;;;;2.50;1.98;;;;;;;9.16;100.00;100801.94;6170694;28;20054;-86
2023/01/02 14:35:07;;;;;;;2.53;2.00;;;;;;;9.18;100.00;100813.81;6189119;28;20128;-87